createdAt,value
2019-02-11T00:00:40.708Z,98666.00
2019-02-11T00:03:10.282Z,98670.00
2019-02-11T00:05:39.661Z,98672.00
2019-02-11T00:08:09.042Z,98667.00
2019-02-11T00:10:38.552Z,98664.00
2019-02-11T00:13:10.654Z,98670.00
2019-02-11T00:15:39.025Z,98676.00
2019-02-11T00:18:08.422Z,98685.00
2019-02-11T00:20:38.099Z,98677.00
2019-02-11T00:23:07.512Z,98688.00
2019-02-11T00:25:36.903Z,98705.00
2019-02-11T00:28:06.285Z,98702.00
2019-02-11T00:30:35.651Z,98709.00
2019-02-11T00:33:05.062Z,98720.00
2019-02-11T00:35:34.439Z,98709.00
2019-02-11T00:38:03.817Z,98724.00
2019-02-11T00:40:33.202Z,98730.00
2019-02-11T00:43:02.577Z,98730.00
2019-02-11T00:45:31.959Z,98727.00
2019-02-11T00:48:01.938Z,98741.00
2019-02-11T00:50:31.319Z,98746.00
2019-02-11T00:53:00.697Z,98746.00
2019-02-11T00:55:30.099Z,98752.00
2019-02-11T00:58:00.347Z,98747.00
2019-02-11T01:00:29.756Z,98752.00
2019-02-11T01:02:59.155Z,98753.00
2019-02-11T01:05:28.546Z,98760.00
2019-02-11T01:07:57.919Z,98770.00
2019-02-11T01:10:27.529Z,98781.00
2019-02-11T01:12:57.717Z,98776.00
2019-02-11T01:15:27.102Z,98784.00
2019-02-11T01:17:56.505Z,98793.00
2019-02-11T01:20:25.878Z,98800.00
2019-02-11T01:22:55.250Z,98798.00
2019-02-11T01:25:24.655Z,98803.00
2019-02-11T01:27:54.029Z,98812.00
2019-02-11T01:30:23.406Z,98800.00
2019-02-11T01:32:53.241Z,98812.00
2019-02-11T01:35:22.691Z,98812.00
2019-02-11T01:37:52.064Z,98818.00
2019-02-11T01:40:21.470Z,98822.00
2019-02-11T01:42:50.836Z,98843.00
2019-02-11T01:45:20.216Z,98845.00
2019-02-11T01:47:49.615Z,98858.00
2019-02-11T01:50:19.001Z,98857.00
2019-02-11T01:52:48.610Z,98863.00
2019-02-11T01:55:18.323Z,98866.00
2019-02-11T01:57:47.690Z,98863.00
2019-02-11T02:00:17.068Z,98871.00
2019-02-11T02:02:46.459Z,98878.00
2019-02-11T02:05:16.840Z,98881.00
2019-02-11T02:07:46.212Z,98885.00
2019-02-11T02:10:16.084Z,98887.00
2019-02-11T02:12:45.532Z,98888.00
2019-02-11T02:15:16.331Z,98889.00
2019-02-11T02:17:46.130Z,98889.00
2019-02-11T02:20:15.774Z,98897.00
2019-02-11T02:22:45.141Z,98893.00
2019-02-11T02:25:14.554Z,98905.00
2019-02-11T02:27:43.926Z,98913.00
2019-02-11T02:30:14.815Z,98919.00
2019-02-11T02:32:44.185Z,98917.00
2019-02-11T02:35:13.555Z,98944.00
2019-02-11T02:37:42.961Z,98943.00
2019-02-11T02:40:12.898Z,98942.00
2019-02-11T02:42:42.279Z,98968.00
2019-02-11T02:45:12.593Z,98967.00
2019-02-11T02:47:41.992Z,98977.00
2019-02-11T02:50:11.624Z,98986.00
2019-02-11T02:52:41.084Z,98994.00
2019-02-11T02:55:10.483Z,98989.00
2019-02-11T02:57:39.851Z,99006.00
2019-02-11T03:00:11.885Z,99012.00
2019-02-11T03:02:41.526Z,99026.00
2019-02-11T03:05:10.916Z,99025.00
2019-02-11T03:07:40.307Z,99042.00
2019-02-11T03:10:11.861Z,99053.00
2019-02-11T03:12:41.228Z,99056.00
2019-02-11T03:15:11.825Z,99062.00
2019-02-11T03:17:43.229Z,99058.00
2019-02-11T03:20:12.592Z,99079.00
2019-02-11T03:22:41.953Z,99085.00
2019-02-11T03:25:11.435Z,99098.00
2019-02-11T03:27:40.803Z,99107.00
2019-02-11T03:30:11.219Z,99127.00
2019-02-11T03:32:40.608Z,99127.00
2019-02-11T03:35:09.979Z,99132.00
2019-02-11T03:37:39.346Z,99157.00
2019-02-11T03:40:10.678Z,99148.00
2019-02-11T03:42:40.048Z,99161.00
2019-02-11T03:45:12.842Z,99172.00
2019-02-11T03:47:42.246Z,99171.00
2019-02-11T03:50:12.824Z,99180.00
2019-02-11T03:52:42.199Z,99180.00
2019-02-11T03:55:12.102Z,99203.00
2019-02-11T03:57:41.477Z,99205.00
2019-02-11T04:00:12.962Z,99209.00
2019-02-11T04:02:42.362Z,99221.00
2019-02-11T04:05:11.742Z,99232.00
2019-02-11T04:07:41.125Z,99240.00
2019-02-11T04:10:13.851Z,99250.00
2019-02-11T04:12:43.245Z,99258.00
2019-02-11T04:15:12.609Z,99260.00
2019-02-11T04:17:42.011Z,99257.00
2019-02-11T04:20:13.034Z,99264.00
2019-02-11T04:22:42.410Z,99282.00
2019-02-11T04:25:11.823Z,99292.00
2019-02-11T04:27:41.241Z,99295.00
2019-02-11T04:30:10.985Z,99288.00
2019-02-11T04:32:40.716Z,99311.00
2019-02-11T04:35:10.083Z,99318.00
2019-02-11T04:37:39.446Z,99329.00
2019-02-11T04:40:13.080Z,99329.00
2019-02-11T04:42:42.463Z,99330.00
2019-02-11T04:45:12.093Z,99342.00
2019-02-11T04:47:42.017Z,99342.00
2019-02-11T04:50:11.502Z,99351.00
2019-02-11T04:52:40.856Z,99363.00
2019-02-11T04:55:12.935Z,99378.00
2019-02-11T04:57:42.363Z,99383.00
2019-02-11T05:00:14.534Z,99367.00
2019-02-11T05:02:44.101Z,99370.00
2019-02-11T05:05:13.608Z,99383.00
2019-02-11T05:07:43.289Z,99395.00
2019-02-11T05:10:16.080Z,99398.00
2019-02-11T05:12:45.764Z,99404.00
2019-02-11T05:15:15.146Z,99416.00
2019-02-11T05:17:44.563Z,99409.00
2019-02-11T05:20:14.200Z,99414.00
2019-02-11T05:22:44.519Z,99429.00
2019-02-11T05:25:13.940Z,99434.00
2019-02-11T05:27:43.304Z,99434.00
2019-02-11T05:30:16.798Z,99453.00
2019-02-11T05:32:46.242Z,99457.00
2019-02-11T05:35:15.613Z,99466.00
2019-02-11T05:37:45.339Z,99471.00
2019-02-11T05:40:15.188Z,99478.00
2019-02-11T05:42:44.557Z,99474.00
2019-02-11T05:45:14.015Z,99487.00
2019-02-11T05:47:43.413Z,99488.00
2019-02-11T05:50:16.090Z,99500.00
2019-02-11T05:52:45.455Z,99500.00
2019-02-11T05:55:14.877Z,99500.00
2019-02-11T05:57:44.548Z,99499.00
2019-02-11T06:00:15.838Z,99511.00
2019-02-11T06:02:45.421Z,99522.00
2019-02-11T06:05:34.132Z,99520.00
2019-02-11T06:08:03.588Z,99542.00
2019-02-11T06:10:32.909Z,99542.00
2019-02-11T06:13:02.307Z,99544.00
2019-02-11T06:15:31.715Z,99564.00
2019-02-11T06:18:01.119Z,99568.00
2019-02-11T06:20:30.494Z,99560.00
2019-02-11T06:23:00.438Z,99568.00
2019-02-11T06:25:31.139Z,99571.00
2019-02-11T06:28:00.542Z,99587.00
2019-02-11T06:30:29.936Z,99594.00
2019-02-11T06:32:59.305Z,99598.00
2019-02-11T06:35:28.673Z,99611.00
2019-02-11T06:37:58.336Z,99603.00
2019-02-11T06:40:27.703Z,99615.00
2019-02-11T06:42:57.080Z,99621.00
2019-02-11T06:45:27.103Z,99624.00
2019-02-11T06:47:56.475Z,99621.00
2019-02-11T06:50:25.844Z,99642.00
2019-02-11T06:52:55.230Z,99643.00
2019-02-11T06:55:24.614Z,99650.00
2019-02-11T06:57:54.046Z,99658.00
2019-02-11T07:00:23.445Z,99660.00
2019-02-11T07:02:53.082Z,99673.00
2019-02-11T07:05:22.446Z,99663.00
2019-02-11T07:07:52.245Z,99679.00
2019-02-11T07:10:21.623Z,99692.00
2019-02-11T07:12:50.990Z,99688.00
2019-02-11T07:15:22.388Z,99691.00
2019-02-11T07:17:51.512Z,99704.00
2019-02-11T07:20:20.893Z,99704.00
2019-02-11T07:22:50.296Z,99713.00
2019-02-11T07:25:19.662Z,99712.00
2019-02-11T07:27:50.077Z,99726.00
2019-02-11T07:30:19.735Z,99724.00
2019-02-11T07:32:49.096Z,99727.00
2019-02-11T07:35:18.460Z,99727.00
2019-02-11T07:37:47.842Z,99742.00
2019-02-11T07:40:17.227Z,99754.00
2019-02-11T07:42:48.241Z,99753.00
2019-02-11T07:45:35.737Z,99764.00
2019-02-11T07:48:05.169Z,99771.00
2019-02-11T07:50:37.440Z,99769.00
2019-02-11T07:53:06.829Z,99768.00
2019-02-11T07:55:36.206Z,99784.00
2019-02-11T07:58:05.568Z,99781.00
2019-02-11T08:00:34.970Z,99795.00
2019-02-11T08:03:04.341Z,99791.00
2019-02-11T08:05:33.715Z,99806.00
2019-02-11T08:08:03.120Z,99805.00
2019-02-11T08:10:32.489Z,99809.00
2019-02-11T08:13:01.849Z,99813.00
2019-02-11T08:15:38.399Z,99824.00
2019-02-11T08:18:02.400Z,99817.00
2019-02-11T08:20:31.774Z,99827.00
2019-02-11T08:23:01.172Z,99834.00
2019-02-11T08:25:30.538Z,99834.00
2019-02-11T08:27:59.926Z,99829.00
2019-02-11T08:30:30.598Z,99827.00
2019-02-11T08:33:00.036Z,99856.00
2019-02-11T08:35:29.414Z,99863.00
2019-02-11T08:37:58.788Z,99850.00
2019-02-11T08:40:28.264Z,99862.00
2019-02-11T08:42:57.633Z,99868.00
2019-02-11T08:45:27.016Z,99876.00
2019-02-11T08:47:56.381Z,99883.00
2019-02-11T08:50:25.746Z,99887.00
2019-02-11T08:52:55.706Z,99907.00
2019-02-11T08:55:25.078Z,99899.00
2019-02-11T08:57:54.453Z,99916.00
2019-02-11T09:00:23.838Z,99935.00
2019-02-11T09:02:53.209Z,99932.00
2019-02-11T09:05:22.572Z,99934.00
2019-02-11T09:07:51.956Z,99945.00
2019-02-11T09:10:24.298Z,99928.00
2019-02-11T09:12:53.680Z,99949.00
2019-02-11T09:15:23.089Z,99954.00
2019-02-11T09:17:52.460Z,99957.00
2019-02-11T09:20:21.839Z,99971.00
2019-02-11T09:22:51.222Z,99964.00
2019-02-11T09:25:20.604Z,99982.00
2019-02-11T09:27:49.982Z,99982.00
2019-02-11T09:30:19.357Z,99992.00
2019-02-11T09:32:50.058Z,100004.00
2019-02-11T09:35:19.431Z,100010.00
2019-02-11T09:37:48.835Z,100008.00
2019-02-11T09:40:18.265Z,100017.00
2019-02-11T09:42:47.578Z,100029.00
2019-02-11T09:45:26.220Z,100021.00
2019-02-11T09:47:55.585Z,100032.00
2019-02-11T09:50:29.470Z,100027.00
2019-02-11T09:52:59.431Z,100047.00
2019-02-11T09:55:32.218Z,100038.00
2019-02-11T09:58:01.884Z,100032.00
2019-02-11T10:00:31.410Z,100036.00
2019-02-11T10:03:00.785Z,100052.00
2019-02-11T10:05:30.174Z,100062.00
2019-02-11T10:07:59.561Z,100064.00
2019-02-11T10:10:28.969Z,100063.00
2019-02-11T10:12:58.393Z,100084.00
2019-02-11T10:15:28.244Z,100069.00
2019-02-11T10:17:57.630Z,100078.00
2019-02-11T10:20:27.165Z,100101.00
2019-02-11T10:22:56.560Z,100100.00
2019-02-11T10:25:29.808Z,100102.00
2019-02-11T10:28:09.374Z,100113.00
2019-02-11T10:30:38.721Z,100112.00
2019-02-11T10:33:08.457Z,100108.00
2019-02-11T10:35:42.323Z,100109.00
2019-02-11T10:38:10.303Z,100118.00
2019-02-11T10:40:39.685Z,100106.00
2019-02-11T10:43:09.078Z,100116.00
2019-02-11T10:45:38.465Z,100118.00
2019-02-11T10:48:07.841Z,100126.00
2019-02-11T10:50:37.574Z,100121.00
2019-02-11T10:53:06.985Z,100125.00
2019-02-11T10:55:36.332Z,100132.00
2019-02-11T10:58:06.018Z,100133.00
2019-02-11T11:00:36.414Z,100137.00
2019-02-11T11:03:05.856Z,100141.00
2019-02-11T11:05:35.246Z,100155.00
2019-02-11T11:08:04.641Z,100158.00
2019-02-11T11:10:39.875Z,100155.00
2019-02-11T11:13:09.513Z,100165.00
2019-02-11T11:15:38.903Z,100169.00
2019-02-11T11:18:09.119Z,100172.00
2019-02-11T11:20:38.608Z,100168.00
2019-02-11T11:23:07.992Z,100205.00
2019-02-11T11:25:37.378Z,100190.00
2019-02-11T11:28:06.760Z,100186.00
2019-02-11T11:30:37.884Z,100185.00
2019-02-11T11:33:07.275Z,100194.00
2019-02-11T11:35:37.007Z,100200.00
2019-02-11T11:38:07.415Z,100199.00
2019-02-11T11:40:36.802Z,100196.00
2019-02-11T11:43:06.259Z,100199.00
2019-02-11T11:45:35.644Z,100201.00
2019-02-11T11:48:05.022Z,100206.00
2019-02-11T11:50:34.406Z,100209.00
2019-02-11T11:53:03.786Z,100201.00
2019-02-11T11:55:33.181Z,100214.00
2019-02-11T11:58:02.774Z,100222.00
2019-02-11T12:00:34.864Z,100223.00
2019-02-11T12:03:05.657Z,100221.00
2019-02-11T12:05:35.734Z,100232.00
2019-02-11T12:08:05.202Z,100228.00
2019-02-11T12:10:35.022Z,100243.00
2019-02-11T12:13:21.876Z,100256.00
2019-02-11T12:15:36.201Z,100252.00
2019-02-11T12:18:05.560Z,100280.00
2019-02-11T12:20:34.974Z,100280.00
2019-02-11T12:23:04.353Z,100276.00
2019-02-11T12:25:33.743Z,100267.00
2019-02-11T12:28:03.141Z,100283.00
2019-02-11T12:30:32.560Z,100288.00
2019-02-11T12:33:01.965Z,100301.00
2019-02-11T12:35:31.911Z,100301.00
2019-02-11T12:38:01.291Z,100297.00
2019-02-11T12:40:31.559Z,100321.00
2019-02-11T12:43:01.137Z,100325.00
2019-02-11T12:45:30.481Z,100332.00
2019-02-11T12:47:59.859Z,100338.00
2019-02-11T12:50:29.331Z,100330.00
2019-02-11T12:52:59.007Z,100347.00
2019-02-11T12:55:28.382Z,100351.00
2019-02-11T12:57:58.083Z,100354.00
2019-02-11T13:00:27.470Z,100345.00
2019-02-11T13:02:56.851Z,100336.00
2019-02-11T13:05:43.404Z,100362.00
2019-02-11T13:07:58.051Z,100360.00
2019-02-11T13:10:27.498Z,100361.00
2019-02-11T13:12:56.904Z,100362.00
2019-02-11T13:15:57.892Z,100378.00
2019-02-11T13:17:57.505Z,100403.00
2019-02-11T13:20:27.066Z,100393.00
2019-02-11T13:22:56.461Z,100393.00
2019-02-11T13:25:26.114Z,100410.00
2019-02-11T13:27:55.488Z,100419.00
2019-02-11T13:30:26.007Z,100414.00
2019-02-11T13:32:55.384Z,100427.00
2019-02-11T13:35:24.778Z,100418.00
2019-02-11T13:37:55.673Z,100443.00
2019-02-11T13:40:25.359Z,100441.00
2019-02-11T13:42:56.028Z,100437.00
2019-02-11T13:45:25.468Z,100454.00
2019-02-11T13:47:58.118Z,100454.00
2019-02-11T13:50:27.932Z,100455.00
2019-02-11T13:52:57.729Z,100466.00
2019-02-11T13:55:30.486Z,100472.00
2019-02-11T13:57:59.757Z,100485.00
2019-02-11T14:00:30.813Z,100486.00
2019-02-11T14:03:04.377Z,100497.00
2019-02-11T14:05:34.366Z,100501.00
2019-02-11T14:08:05.344Z,100498.00
2019-02-11T14:10:34.826Z,100518.00
2019-02-11T14:13:05.276Z,100509.00
2019-02-11T14:15:34.666Z,100525.00
2019-02-11T14:18:13.952Z,100534.00
2019-02-11T14:20:41.604Z,100544.00
2019-02-11T14:23:11.413Z,100545.00
2019-02-11T14:25:45.807Z,100543.00
2019-02-11T14:28:12.320Z,100567.00
2019-02-11T14:30:41.678Z,100557.00
2019-02-11T14:33:11.325Z,100569.00
2019-02-11T14:35:40.707Z,100579.00
2019-02-11T14:38:10.209Z,100589.00
2019-02-11T14:40:39.769Z,100582.00
2019-02-11T14:43:09.142Z,100598.00
2019-02-11T14:45:39.437Z,100611.00
2019-02-11T14:48:08.840Z,100597.00
2019-02-11T14:50:38.564Z,100613.00
2019-02-11T14:53:07.953Z,100612.00
2019-02-11T14:55:37.334Z,100629.00
2019-02-11T14:58:06.736Z,100626.00
2019-02-11T15:00:36.122Z,100627.00
2019-02-11T15:03:05.574Z,100633.00
2019-02-11T15:05:34.970Z,100669.00
2019-02-11T15:08:04.359Z,100658.00
2019-02-11T15:10:33.742Z,100670.00
2019-02-11T15:13:03.466Z,100662.00
2019-02-11T15:15:32.942Z,100681.00
2019-02-11T15:18:02.305Z,100684.00
2019-02-11T15:20:31.690Z,100685.00
2019-02-11T15:23:01.079Z,100709.00
2019-02-11T15:25:30.797Z,100697.00
2019-02-11T15:28:00.201Z,100698.00
2019-02-11T15:30:29.602Z,100711.00
2019-02-11T15:32:59.061Z,100712.00
2019-02-11T15:35:28.728Z,100710.00
2019-02-11T15:37:58.112Z,100732.00
2019-02-11T15:40:27.498Z,100724.00
2019-02-11T15:42:56.895Z,100733.00
2019-02-11T15:45:26.636Z,100732.00
2019-02-11T15:47:57.195Z,100740.00
2019-02-11T15:50:26.577Z,100749.00
2019-02-11T15:52:55.967Z,100756.00
2019-02-11T15:55:25.664Z,100757.00
2019-02-11T15:57:55.314Z,100769.00
2019-02-11T16:00:25.063Z,100789.00
2019-02-11T16:02:54.433Z,100791.00
2019-02-11T16:05:23.896Z,100799.00
2019-02-11T16:07:53.263Z,100804.00
2019-02-11T16:10:29.955Z,100814.00
2019-02-11T16:12:59.924Z,100811.00
2019-02-11T16:15:29.312Z,100808.00
2019-02-11T16:17:58.692Z,100820.00
2019-02-11T16:20:28.095Z,100834.00
2019-02-11T16:22:57.485Z,100844.00
2019-02-11T16:25:26.840Z,100852.00
2019-02-11T16:27:57.904Z,100867.00
2019-02-11T16:30:27.397Z,100873.00
2019-02-11T16:32:56.804Z,100898.00
2019-02-11T16:35:26.510Z,100911.00
2019-02-11T16:37:55.875Z,100914.00
2019-02-11T16:40:32.440Z,100909.00
2019-02-11T16:43:02.141Z,100932.00
2019-02-11T16:45:31.525Z,100938.00
2019-02-11T16:48:02.084Z,100941.00
2019-02-11T16:50:33.226Z,100963.00
2019-02-11T16:53:02.603Z,100957.00
2019-02-11T16:55:32.050Z,100968.00
2019-02-11T16:58:01.447Z,100974.00
2019-02-11T17:00:30.826Z,100977.00
2019-02-11T17:03:00.200Z,100977.00
2019-02-11T17:05:29.578Z,100985.00
2019-02-11T17:07:58.952Z,100983.00
2019-02-11T17:10:28.329Z,101002.00
2019-02-11T17:12:58.098Z,101004.00
2019-02-11T17:15:27.476Z,101021.00
2019-02-11T17:17:56.865Z,101020.00
2019-02-11T17:20:26.235Z,101029.00
2019-02-11T17:22:55.615Z,101032.00
2019-02-11T17:25:24.996Z,101037.00
2019-02-11T17:27:54.713Z,101051.00
2019-02-11T17:30:31.461Z,101049.00
2019-02-11T17:33:01.081Z,101033.00
2019-02-11T17:35:31.126Z,101041.00
2019-02-11T17:38:00.491Z,101055.00
2019-02-11T17:40:29.865Z,101070.00
2019-02-11T17:42:59.247Z,101056.00
2019-02-11T17:45:32.957Z,101064.00
2019-02-11T17:48:02.306Z,101079.00
2019-02-11T17:50:31.712Z,101087.00
2019-02-11T17:53:22.116Z,101091.00
2019-02-11T17:55:53.485Z,101109.00
2019-02-11T17:58:23.143Z,101105.00
2019-02-11T18:00:56.869Z,101121.00
2019-02-11T18:03:27.726Z,101125.00
2019-02-11T18:05:57.398Z,101123.00
2019-02-11T18:08:26.791Z,101121.00
2019-02-11T18:10:56.230Z,101130.00
2019-02-11T18:13:25.913Z,101137.00
2019-02-11T18:15:55.285Z,101132.00
2019-02-11T18:18:24.703Z,101152.00
2019-02-11T18:20:54.078Z,101154.00
2019-02-11T18:23:23.732Z,101168.00
2019-02-11T18:25:53.135Z,101172.00
2019-02-11T18:28:22.497Z,101200.00
2019-02-11T18:30:51.870Z,101186.00
2019-02-11T18:33:21.587Z,101185.00
2019-02-11T18:35:50.970Z,101198.00
2019-02-11T18:38:20.351Z,101188.00
2019-02-11T18:40:49.767Z,101206.00
2019-02-11T18:43:19.142Z,101227.00
2019-02-11T18:45:48.514Z,101223.00
2019-02-11T18:48:17.905Z,101233.00
2019-02-11T18:50:47.281Z,101230.00
2019-02-11T18:53:16.749Z,101233.00
2019-02-11T18:55:47.346Z,101242.00
2019-02-11T18:58:16.731Z,101250.00
2019-02-11T19:00:46.109Z,101261.00
2019-02-11T19:03:15.675Z,101259.00
2019-02-11T19:05:45.132Z,101263.00
2019-02-11T19:08:14.506Z,101261.00
2019-02-11T19:10:43.888Z,101262.00
2019-02-11T19:13:13.261Z,101266.00
2019-02-11T19:15:42.681Z,101274.00
2019-02-11T19:18:12.374Z,101283.00
2019-02-11T19:20:41.754Z,101273.00
2019-02-11T19:23:11.451Z,101292.00
2019-02-11T19:25:40.850Z,101291.00
2019-02-11T19:28:10.572Z,101297.00
2019-02-11T19:30:39.938Z,101299.00
2019-02-11T19:33:09.336Z,101303.00
2019-02-11T19:35:38.712Z,101306.00
2019-02-11T19:38:08.084Z,101321.00
2019-02-11T19:40:37.523Z,101321.00
2019-02-11T19:43:06.905Z,101319.00
2019-02-11T19:45:36.280Z,101315.00
2019-02-11T19:48:05.661Z,101322.00
2019-02-11T19:50:35.043Z,101322.00
2019-02-11T19:53:04.422Z,101330.00
2019-02-11T19:55:33.830Z,101349.00
2019-02-11T19:58:04.463Z,101347.00
2019-02-11T20:00:33.845Z,101338.00
2019-02-11T20:03:03.599Z,101359.00
2019-02-11T20:05:32.971Z,101362.00
2019-02-11T20:08:02.345Z,101368.00
2019-02-11T20:10:31.742Z,101376.00
2019-02-11T20:13:01.120Z,101366.00
2019-02-11T20:15:32.396Z,101361.00
2019-02-11T20:18:01.805Z,101371.00
2019-02-11T20:20:31.200Z,101374.00
2019-02-11T20:23:00.566Z,101366.00
2019-02-11T20:25:30.265Z,101378.00
2019-02-11T20:27:59.630Z,101376.00
2019-02-11T20:30:31.019Z,101387.00
2019-02-11T20:33:00.438Z,101391.00
2019-02-11T20:35:29.800Z,101382.00
2019-02-11T20:37:59.182Z,101386.00
2019-02-11T20:40:30.016Z,101406.00
2019-02-11T20:42:59.329Z,101396.00
2019-02-11T20:45:29.814Z,101413.00
2019-02-11T20:47:59.484Z,101400.00
2019-02-11T20:50:28.875Z,101406.00
2019-02-11T20:52:58.236Z,101409.00
2019-02-11T20:55:27.622Z,101413.00
2019-02-11T20:57:59.896Z,101428.00
2019-02-11T21:00:30.370Z,101426.00
2019-02-11T21:03:08.211Z,101424.00
2019-02-11T21:05:31.535Z,101416.00
2019-02-11T21:08:00.891Z,101425.00
2019-02-11T21:10:30.272Z,101432.00
2019-02-11T21:12:59.644Z,101426.00
2019-02-11T21:15:29.064Z,101426.00
2019-02-11T21:17:58.726Z,101429.00
2019-02-11T21:20:41.588Z,101431.00
2019-02-11T21:23:12.125Z,101444.00
2019-02-11T21:25:41.488Z,101445.00
2019-02-11T21:28:10.925Z,101450.00
2019-02-11T21:30:40.331Z,101444.00
2019-02-11T21:33:09.684Z,101446.00
2019-02-11T21:35:39.056Z,101441.00
2019-02-11T21:38:08.468Z,101453.00
2019-02-11T21:40:37.810Z,101453.00
2019-02-11T21:43:07.181Z,101460.00
2019-02-11T21:45:37.070Z,101453.00
2019-02-11T21:48:06.720Z,101457.00
2019-02-11T21:50:36.127Z,101463.00
2019-02-11T21:53:05.506Z,101466.00
2019-02-11T21:55:34.901Z,101471.00
2019-02-11T21:58:04.256Z,101467.00
2019-02-11T22:00:33.637Z,101475.00
2019-02-11T22:03:04.369Z,101475.00
2019-02-11T22:05:33.728Z,101483.00
2019-02-11T22:08:03.415Z,101477.00
2019-02-11T22:10:32.805Z,101476.00
2019-02-11T22:13:02.167Z,101474.00
2019-02-11T22:15:31.617Z,101476.00
2019-02-11T22:18:01.003Z,101478.00
2019-02-11T22:20:34.706Z,101485.00
2019-02-11T22:23:01.571Z,101494.00
2019-02-11T22:25:30.942Z,101483.00
2019-02-11T22:28:00.851Z,101490.00
2019-02-11T22:30:30.512Z,101506.00
2019-02-11T22:32:59.885Z,101494.00
2019-02-11T22:35:29.255Z,101490.00
2019-02-11T22:37:58.640Z,101499.00
2019-02-11T22:40:28.252Z,101501.00
2019-02-11T22:42:57.986Z,101521.00
2019-02-11T22:45:29.202Z,101520.00
2019-02-11T22:47:58.564Z,101520.00
2019-02-11T22:50:27.952Z,101535.00
2019-02-11T22:52:57.990Z,101536.00
2019-02-11T22:55:27.367Z,101545.00
2019-02-11T22:57:56.743Z,101544.00
2019-02-11T23:00:31.902Z,101545.00
2019-02-11T23:03:01.276Z,101555.00
2019-02-11T23:05:31.849Z,101546.00
2019-02-11T23:08:01.482Z,101545.00
2019-02-11T23:10:30.854Z,101558.00
2019-02-11T23:13:00.217Z,101545.00
2019-02-11T23:15:29.612Z,101556.00
2019-02-11T23:17:58.980Z,101564.00
2019-02-11T23:20:28.933Z,101575.00
2019-02-11T23:22:58.301Z,101567.00
2019-02-11T23:25:27.668Z,101566.00
2019-02-11T23:27:57.044Z,101573.00
2019-02-11T23:30:26.460Z,101586.00
2019-02-11T23:32:55.835Z,101587.00
2019-02-11T23:35:25.202Z,101575.00
2019-02-11T23:37:54.591Z,101586.00
2019-02-11T23:40:23.954Z,101593.00
2019-02-11T23:42:53.318Z,101598.00
2019-02-11T23:45:22.702Z,101576.00
2019-02-11T23:47:52.413Z,101593.00
2019-02-11T23:50:21.762Z,101597.00
2019-02-11T23:52:51.561Z,101597.00
2019-02-11T23:55:20.946Z,101602.00
2019-02-11T23:57:50.292Z,101626.00
